sensor_id;sensor_type;location;lat;lon;timestamp;P1;durP1;ratioP1;P2;durP2;ratioP2
61204;SDS011;47068;55.780;37.520;2022-12-10T00:01:23;6.40;;;2.57;;
61204;SDS011;47068;55.780;37.520;2022-12-10T00:06:19;8.27;;;2.00;;
61204;SDS011;47068;55.780;37.520;2022-12-10T00:08:46;7.73;;;3.40;;
61204;SDS011;47068;55.780;37.520;2022-12-10T00:11:13;4.95;;;3.13;;
61204;SDS011;47068;55.780;37.520;2022-12-10T00:13:40;8.00;;;2.60;;
61204;SDS011;47068;55.780;37.520;2022-12-10T00:16:07;7.35;;;1.27;;
61204;SDS011;47068;55.780;37.520;2022-12-10T00:18:34;9.17;;;2.83;;
61204;SDS011;47068;55.780;37.520;2022-12-10T00:23:29;7.30;;;2.93;;
61204;SDS011;47068;55.780;37.520;2022-12-10T00:26:04;4.60;;;1.37;;
61204;SDS011;47068;55.780;37.520;2022-12-10T00:28:31;3.37;;;1.53;;
61204;SDS011;47068;55.780;37.520;2022-12-10T00:31:01;8.35;;;2.03;;
61204;SDS011;47068;55.780;37.520;2022-12-10T00:33:37;3.00;;;1.33;;
61204;SDS011;47068;55.780;37.520;2022-12-10T00:36:04;3.60;;;2.00;;
61204;SDS011;47068;55.780;37.520;2022-12-10T00:38:32;5.30;;;2.13;;
61204;SDS011;47068;55.780;37.520;2022-12-10T00:40:57;1.23;;;0.80;;
61204;SDS011;47068;55.780;37.520;2022-12-10T00:43:23;4.28;;;2.00;;
61204;SDS011;47068;55.780;37.520;2022-12-10T00:45:48;2.87;;;1.37;;
61204;SDS011;47068;55.780;37.520;2022-12-10T00:48:14;6.13;;;3.20;;
61204;SDS011;47068;55.780;37.520;2022-12-10T00:50:39;2.97;;;1.50;;
61204;SDS011;47068;55.780;37.520;2022-12-10T00:53:05;4.17;;;1.63;;
61204;SDS011;47068;55.780;37.520;2022-12-10T00:55:30;4.40;;;2.07;;
61204;SDS011;47068;55.780;37.520;2022-12-10T00:57:55;9.17;;;2.57;;
61204;SDS011;47068;55.780;37.520;2022-12-10T01:00:21;9.90;;;2.30;;
61204;SDS011;47068;55.780;37.520;2022-12-10T01:02:46;5.50;;;2.50;;
61204;SDS011;47068;55.780;37.520;2022-12-10T01:05:12;8.43;;;2.90;;
61204;SDS011;47068;55.780;37.520;2022-12-10T01:07:37;5.57;;;2.73;;
61204;SDS011;47068;55.780;37.520;2022-12-10T01:10:03;12.20;;;4.00;;
61204;SDS011;47068;55.780;37.520;2022-12-10T01:12:28;6.03;;;2.38;;
61204;SDS011;47068;55.780;37.520;2022-12-10T01:14:54;2.47;;;1.10;;
61204;SDS011;47068;55.780;37.520;2022-12-10T01:17:19;8.33;;;2.23;;
61204;SDS011;47068;55.780;37.520;2022-12-10T01:19:46;3.53;;;2.27;;
61204;SDS011;47068;55.780;37.520;2022-12-10T01:22:12;6.22;;;2.53;;
61204;SDS011;47068;55.780;37.520;2022-12-10T01:24:37;4.83;;;3.33;;
61204;SDS011;47068;55.780;37.520;2022-12-10T01:27:03;3.37;;;2.10;;
61204;SDS011;47068;55.780;37.520;2022-12-10T01:29:28;14.60;;;3.10;;
61204;SDS011;47068;55.780;37.520;2022-12-10T01:31:56;6.22;;;2.83;;
61204;SDS011;47068;55.780;37.520;2022-12-10T01:34:22;11.03;;;2.47;;
61204;SDS011;47068;55.780;37.520;2022-12-10T01:39:16;7.72;;;2.65;;
61204;SDS011;47068;55.780;37.520;2022-12-10T01:41:49;8.93;;;2.17;;
61204;SDS011;47068;55.780;37.520;2022-12-10T01:46:43;2.97;;;1.80;;
61204;SDS011;47068;55.780;37.520;2022-12-10T01:49:15;5.13;;;2.17;;
61204;SDS011;47068;55.780;37.520;2022-12-10T01:51:49;3.33;;;1.97;;
61204;SDS011;47068;55.780;37.520;2022-12-10T01:54:18;4.60;;;1.90;;
61204;SDS011;47068;55.780;37.520;2022-12-10T01:56:47;5.97;;;2.17;;
61204;SDS011;47068;55.780;37.520;2022-12-10T01:59:17;3.70;;;1.77;;
61204;SDS011;47068;55.780;37.520;2022-12-10T02:02:00;3.85;;;1.17;;
61204;SDS011;47068;55.780;37.520;2022-12-10T02:05:36;8.20;;;2.10;;
61204;SDS011;47068;55.780;37.520;2022-12-10T02:07:59;2.17;;;1.40;;
61204;SDS011;47068;55.780;37.520;2022-12-10T02:13:59;11.67;;;3.17;;
61204;SDS011;47068;55.780;37.520;2022-12-10T02:16:34;4.23;;;1.73;;
61204;SDS011;47068;55.780;37.520;2022-12-10T02:21:52;5.60;;;2.38;;
61204;SDS011;47068;55.780;37.520;2022-12-10T02:24:25;4.97;;;2.23;;
61204;SDS011;47068;55.780;37.520;2022-12-10T02:29:46;6.43;;;1.83;;
61204;SDS011;47068;55.780;37.520;2022-12-10T02:32:15;8.23;;;2.77;;
61204;SDS011;47068;55.780;37.520;2022-12-10T02:34:46;9.37;;;2.30;;
61204;SDS011;47068;55.780;37.520;2022-12-10T02:37:27;8.57;;;2.63;;
61204;SDS011;47068;55.780;37.520;2022-12-10T02:39:57;11.67;;;3.10;;
61204;SDS011;47068;55.780;37.520;2022-12-10T02:42:27;6.43;;;2.07;;
61204;SDS011;47068;55.780;37.520;2022-12-10T02:44:55;4.37;;;1.93;;
61204;SDS011;47068;55.780;37.520;2022-12-10T02:47:22;8.97;;;3.13;;
61204;SDS011;47068;55.780;37.520;2022-12-10T02:49:51;6.10;;;2.77;;
61204;SDS011;47068;55.780;37.520;2022-12-10T02:52:20;3.00;;;2.13;;
61204;SDS011;47068;55.780;37.520;2022-12-10T02:54:48;11.33;;;2.40;;
61204;SDS011;47068;55.780;37.520;2022-12-10T03:07:53;13.47;;;3.90;;
61204;SDS011;47068;55.780;37.520;2022-12-10T03:12:57;6.67;;;3.17;;
61204;SDS011;47068;55.780;37.520;2022-12-10T03:15:25;9.60;;;2.73;;
61204;SDS011;47068;55.780;37.520;2022-12-10T03:17:53;9.10;;;3.57;;
61204;SDS011;47068;55.780;37.520;2022-12-10T03:20:20;14.37;;;4.33;;
61204;SDS011;47068;55.780;37.520;2022-12-10T03:22:48;6.43;;;2.07;;
61204;SDS011;47068;55.780;37.520;2022-12-10T03:25:16;10.43;;;3.58;;
61204;SDS011;47068;55.780;37.520;2022-12-10T03:27:48;18.87;;;4.00;;
61204;SDS011;47068;55.780;37.520;2022-12-10T03:30:16;6.57;;;2.93;;
61204;SDS011;47068;55.780;37.520;2022-12-10T03:32:42;6.18;;;2.90;;
61204;SDS011;47068;55.780;37.520;2022-12-10T03:35:09;10.07;;;3.63;;
61204;SDS011;47068;55.780;37.520;2022-12-10T03:37:36;10.20;;;4.73;;
61204;SDS011;47068;55.780;37.520;2022-12-10T03:40:02;8.40;;;3.47;;
61204;SDS011;47068;55.780;37.520;2022-12-10T03:42:29;14.50;;;3.17;;
61204;SDS011;47068;55.780;37.520;2022-12-10T03:44:55;7.80;;;4.20;;
61204;SDS011;47068;55.780;37.520;2022-12-10T03:47:20;17.63;;;4.90;;
61204;SDS011;47068;55.780;37.520;2022-12-10T03:49:47;9.47;;;4.23;;
61204;SDS011;47068;55.780;37.520;2022-12-10T03:52:13;15.60;;;3.67;;
61204;SDS011;47068;55.780;37.520;2022-12-10T03:54:38;10.57;;;4.72;;
61204;SDS011;47068;55.780;37.520;2022-12-10T03:57:04;19.17;;;5.60;;
61204;SDS011;47068;55.780;37.520;2022-12-10T03:59:29;16.10;;;4.53;;
61204;SDS011;47068;55.780;37.520;2022-12-10T04:01:55;10.53;;;3.73;;
61204;SDS011;47068;55.780;37.520;2022-12-10T04:04:20;16.47;;;4.50;;
61204;SDS011;47068;55.780;37.520;2022-12-10T04:06:46;18.60;;;5.75;;
61204;SDS011;47068;55.780;37.520;2022-12-10T04:09:12;13.63;;;4.87;;
61204;SDS011;47068;55.780;37.520;2022-12-10T04:11:39;15.50;;;4.80;;
61204;SDS011;47068;55.780;37.520;2022-12-10T04:14:04;13.53;;;4.90;;
61204;SDS011;47068;55.780;37.520;2022-12-10T04:16:49;15.60;;;5.23;;
61204;SDS011;47068;55.780;37.520;2022-12-10T04:19:16;12.45;;;4.50;;
61204;SDS011;47068;55.780;37.520;2022-12-10T04:21:42;9.63;;;2.87;;
61204;SDS011;47068;55.780;37.520;2022-12-10T04:24:28;17.47;;;4.07;;
61204;SDS011;47068;55.780;37.520;2022-12-10T04:27:24;16.85;;;4.97;;
61204;SDS011;47068;55.780;37.520;2022-12-10T04:30:11;7.67;;;3.70;;
61204;SDS011;47068;55.780;37.520;2022-12-10T04:32:37;12.93;;;4.03;;
61204;SDS011;47068;55.780;37.520;2022-12-10T04:35:04;9.38;;;3.38;;
61204;SDS011;47068;55.780;37.520;2022-12-10T04:37:30;15.23;;;5.10;;
61204;SDS011;47068;55.780;37.520;2022-12-10T04:39:55;22.60;;;6.27;;
61204;SDS011;47068;55.780;37.520;2022-12-10T04:42:21;17.50;;;4.60;;
61204;SDS011;47068;55.780;37.520;2022-12-10T04:44:47;26.55;;;6.50;;
61204;SDS011;47068;55.780;37.520;2022-12-10T04:47:13;17.20;;;6.32;;
61204;SDS011;47068;55.780;37.520;2022-12-10T04:49:38;22.33;;;5.03;;
61204;SDS011;47068;55.780;37.520;2022-12-10T04:52:05;17.25;;;6.40;;
61204;SDS011;47068;55.780;37.520;2022-12-10T04:54:31;16.03;;;5.07;;
61204;SDS011;47068;55.780;37.520;2022-12-10T04:56:57;9.95;;;3.88;;
61204;SDS011;47068;55.780;37.520;2022-12-10T04:59:23;7.57;;;4.30;;
61204;SDS011;47068;55.780;37.520;2022-12-10T05:01:48;17.40;;;6.27;;
61204;SDS011;47068;55.780;37.520;2022-12-10T05:04:15;13.02;;;4.57;;
61204;SDS011;47068;55.780;37.520;2022-12-10T05:06:42;25.50;;;5.97;;
61204;SDS011;47068;55.780;37.520;2022-12-10T05:09:09;13.25;;;5.55;;
61204;SDS011;47068;55.780;37.520;2022-12-10T05:11:36;7.67;;;3.77;;
61204;SDS011;47068;55.780;37.520;2022-12-10T05:14:01;12.75;;;5.25;;
61204;SDS011;47068;55.780;37.520;2022-12-10T05:16:28;12.45;;;5.10;;
61204;SDS011;47068;55.780;37.520;2022-12-10T05:18:55;19.27;;;5.90;;
61204;SDS011;47068;55.780;37.520;2022-12-10T05:21:22;27.90;;;4.40;;
61204;SDS011;47068;55.780;37.520;2022-12-10T05:23:50;8.30;;;4.03;;
61204;SDS011;47068;55.780;37.520;2022-12-10T05:26:21;15.83;;;4.80;;
61204;SDS011;47068;55.780;37.520;2022-12-10T05:28:49;13.70;;;3.73;;
61204;SDS011;47068;55.780;37.520;2022-12-10T05:31:18;15.90;;;4.33;;
61204;SDS011;47068;55.780;37.520;2022-12-10T05:33:45;12.10;;;5.43;;
61204;SDS011;47068;55.780;37.520;2022-12-10T05:36:11;14.00;;;4.88;;
61204;SDS011;47068;55.780;37.520;2022-12-10T05:38:38;13.93;;;6.37;;
61204;SDS011;47068;55.780;37.520;2022-12-10T05:41:06;18.00;;;7.00;;
61204;SDS011;47068;55.780;37.520;2022-12-10T05:43:35;14.40;;;4.03;;
61204;SDS011;47068;55.780;37.520;2022-12-10T05:46:01;15.02;;;4.10;;
61204;SDS011;47068;55.780;37.520;2022-12-10T05:48:28;12.43;;;3.73;;
61204;SDS011;47068;55.780;37.520;2022-12-10T05:50:55;12.80;;;4.63;;
61204;SDS011;47068;55.780;37.520;2022-12-10T05:53:20;11.60;;;5.68;;
61204;SDS011;47068;55.780;37.520;2022-12-10T05:55:46;21.80;;;6.40;;
61204;SDS011;47068;55.780;37.520;2022-12-10T05:58:11;17.67;;;6.87;;
61204;SDS011;47068;55.780;37.520;2022-12-10T06:00:46;24.10;;;4.83;;
61204;SDS011;47068;55.780;37.520;2022-12-10T06:03:11;8.13;;;4.10;;
61204;SDS011;47068;55.780;37.520;2022-12-10T06:05:37;21.57;;;3.87;;
61204;SDS011;47068;55.780;37.520;2022-12-10T06:08:04;27.70;;;5.33;;
61204;SDS011;47068;55.780;37.520;2022-12-10T06:12:56;13.67;;;5.40;;
61204;SDS011;47068;55.780;37.520;2022-12-10T06:15:22;17.83;;;6.33;;
61204;SDS011;47068;55.780;37.520;2022-12-10T06:17:47;17.00;;;5.63;;
61204;SDS011;47068;55.780;37.520;2022-12-10T06:20:13;15.60;;;5.57;;
61204;SDS011;47068;55.780;37.520;2022-12-10T06:22:38;23.60;;;6.65;;
61204;SDS011;47068;55.780;37.520;2022-12-10T06:25:04;13.57;;;6.07;;
61204;SDS011;47068;55.780;37.520;2022-12-10T06:27:31;13.87;;;5.53;;
61204;SDS011;47068;55.780;37.520;2022-12-10T06:29:56;12.20;;;5.70;;
61204;SDS011;47068;55.780;37.520;2022-12-10T06:32:22;17.67;;;5.82;;
61204;SDS011;47068;55.780;37.520;2022-12-10T06:34:48;19.57;;;5.83;;
61204;SDS011;47068;55.780;37.520;2022-12-10T06:37:13;19.60;;;5.60;;
61204;SDS011;47068;55.780;37.520;2022-12-10T06:39:39;13.20;;;6.03;;
61204;SDS011;47068;55.780;37.520;2022-12-10T06:42:04;13.48;;;6.15;;
61204;SDS011;47068;55.780;37.520;2022-12-10T06:44:30;18.15;;;6.25;;
61204;SDS011;47068;55.780;37.520;2022-12-10T06:46:56;18.92;;;6.10;;
61204;SDS011;47068;55.780;37.520;2022-12-10T06:49:21;14.48;;;4.82;;
61204;SDS011;47068;55.780;37.520;2022-12-10T06:51:47;14.37;;;5.17;;
61204;SDS011;47068;55.780;37.520;2022-12-10T06:54:13;15.82;;;4.80;;
61204;SDS011;47068;55.780;37.520;2022-12-10T06:56:38;15.57;;;7.03;;
61204;SDS011;47068;55.780;37.520;2022-12-10T06:59:04;11.80;;;4.97;;
61204;SDS011;47068;55.780;37.520;2022-12-10T07:01:31;21.87;;;6.10;;
61204;SDS011;47068;55.780;37.520;2022-12-10T07:03:56;16.40;;;6.35;;
61204;SDS011;47068;55.780;37.520;2022-12-10T07:06:24;11.57;;;4.35;;
61204;SDS011;47068;55.780;37.520;2022-12-10T07:08:50;14.87;;;4.40;;
61204;SDS011;47068;55.780;37.520;2022-12-10T07:11:17;21.40;;;6.35;;
61204;SDS011;47068;55.780;37.520;2022-12-10T07:13:44;16.47;;;5.17;;
61204;SDS011;47068;55.780;37.520;2022-12-10T07:18:44;16.90;;;5.97;;
61204;SDS011;47068;55.780;37.520;2022-12-10T07:21:52;16.57;;;4.13;;
61204;SDS011;47068;55.780;37.520;2022-12-10T07:24:01;12.77;;;4.43;;
61204;SDS011;47068;55.780;37.520;2022-12-10T07:26:39;29.80;;;4.17;;
61204;SDS011;47068;55.780;37.520;2022-12-10T07:29:06;11.43;;;5.47;;
61204;SDS011;47068;55.780;37.520;2022-12-10T07:31:35;21.30;;;5.03;;
61204;SDS011;47068;55.780;37.520;2022-12-10T07:34:00;23.08;;;5.80;;
61204;SDS011;47068;55.780;37.520;2022-12-10T07:36:26;15.63;;;5.80;;
61204;SDS011;47068;55.780;37.520;2022-12-10T07:38:53;18.23;;;4.67;;
61204;SDS011;47068;55.780;37.520;2022-12-10T07:41:20;18.73;;;5.77;;
61204;SDS011;47068;55.780;37.520;2022-12-10T07:43:46;17.95;;;5.50;;
61204;SDS011;47068;55.780;37.520;2022-12-10T07:46:14;15.82;;;7.18;;
61204;SDS011;47068;55.780;37.520;2022-12-10T07:48:43;14.43;;;5.73;;
61204;SDS011;47068;55.780;37.520;2022-12-10T07:51:10;23.27;;;6.90;;
61204;SDS011;47068;55.780;37.520;2022-12-10T07:53:36;8.95;;;3.58;;
61204;SDS011;47068;55.780;37.520;2022-12-10T07:56:01;13.77;;;5.73;;
61204;SDS011;47068;55.780;37.520;2022-12-10T08:00:53;12.87;;;4.83;;
61204;SDS011;47068;55.780;37.520;2022-12-10T08:03:18;18.70;;;6.40;;
61204;SDS011;47068;55.780;37.520;2022-12-10T08:05:44;25.20;;;6.33;;
61204;SDS011;47068;55.780;37.520;2022-12-10T08:08:09;21.73;;;6.25;;
61204;SDS011;47068;55.780;37.520;2022-12-10T08:10:35;20.63;;;7.70;;
61204;SDS011;47068;55.780;37.520;2022-12-10T08:13:02;16.13;;;5.97;;
61204;SDS011;47068;55.780;37.520;2022-12-10T08:15:28;13.85;;;5.47;;
61204;SDS011;47068;55.780;37.520;2022-12-10T08:17:54;11.57;;;5.97;;
61204;SDS011;47068;55.780;37.520;2022-12-10T08:22:45;14.83;;;7.97;;
61204;SDS011;47068;55.780;37.520;2022-12-10T08:25:11;15.50;;;5.77;;
61204;SDS011;47068;55.780;37.520;2022-12-10T08:27:37;23.73;;;7.30;;
61204;SDS011;47068;55.780;37.520;2022-12-10T08:30:02;18.63;;;6.50;;
61204;SDS011;47068;55.780;37.520;2022-12-10T08:32:29;21.75;;;8.57;;
61204;SDS011;47068;55.780;37.520;2022-12-10T08:34:54;26.00;;;9.98;;
61204;SDS011;47068;55.780;37.520;2022-12-10T08:37:20;29.30;;;6.67;;
61204;SDS011;47068;55.780;37.520;2022-12-10T08:39:47;25.20;;;8.07;;
61204;SDS011;47068;55.780;37.520;2022-12-10T08:42:13;25.27;;;8.13;;
61204;SDS011;47068;55.780;37.520;2022-12-10T08:44:38;21.57;;;7.97;;
61204;SDS011;47068;55.780;37.520;2022-12-10T08:47:04;21.95;;;6.32;;
61204;SDS011;47068;55.780;37.520;2022-12-10T08:49:30;19.75;;;8.10;;
61204;SDS011;47068;55.780;37.520;2022-12-10T08:51:55;24.90;;;9.83;;
61204;SDS011;47068;55.780;37.520;2022-12-10T08:54:21;34.50;;;7.87;;
61204;SDS011;47068;55.780;37.520;2022-12-10T08:56:46;29.80;;;9.23;;
61204;SDS011;47068;55.780;37.520;2022-12-10T08:59:11;22.70;;;8.27;;
61204;SDS011;47068;55.780;37.520;2022-12-10T09:01:37;22.60;;;8.65;;
61204;SDS011;47068;55.780;37.520;2022-12-10T09:04:02;35.33;;;10.00;;
61204;SDS011;47068;55.780;37.520;2022-12-10T09:06:28;27.23;;;9.27;;
61204;SDS011;47068;55.780;37.520;2022-12-10T09:08:54;32.63;;;9.95;;
61204;SDS011;47068;55.780;37.520;2022-12-10T09:11:24;31.23;;;8.40;;
61204;SDS011;47068;55.780;37.520;2022-12-10T09:13:52;24.47;;;10.77;;
61204;SDS011;47068;55.780;37.520;2022-12-10T09:16:18;37.10;;;10.80;;
61204;SDS011;47068;55.780;37.520;2022-12-10T09:18:43;30.83;;;12.70;;
61204;SDS011;47068;55.780;37.520;2022-12-10T09:21:11;39.07;;;8.23;;
61204;SDS011;47068;55.780;37.520;2022-12-10T09:23:38;20.10;;;8.63;;
61204;SDS011;47068;55.780;37.520;2022-12-10T09:26:05;30.48;;;9.00;;
61204;SDS011;47068;55.780;37.520;2022-12-10T09:28:32;33.80;;;8.73;;
61204;SDS011;47068;55.780;37.520;2022-12-10T09:30:58;22.30;;;9.17;;
61204;SDS011;47068;55.780;37.520;2022-12-10T09:33:25;35.60;;;9.40;;
61204;SDS011;47068;55.780;37.520;2022-12-10T09:35:51;27.47;;;10.60;;
61204;SDS011;47068;55.780;37.520;2022-12-10T09:38:17;31.10;;;9.60;;
61204;SDS011;47068;55.780;37.520;2022-12-10T09:46:48;51.47;;;9.77;;
61204;SDS011;47068;55.780;37.520;2022-12-10T09:52:04;28.17;;;11.02;;
61204;SDS011;47068;55.780;37.520;2022-12-10T09:55:09;30.17;;;9.60;;
61204;SDS011;47068;55.780;37.520;2022-12-10T09:59:56;21.83;;;8.40;;
61204;SDS011;47068;55.780;37.520;2022-12-10T10:02:28;32.37;;;10.87;;
61204;SDS011;47068;55.780;37.520;2022-12-10T10:05:08;40.97;;;9.73;;
61204;SDS011;47068;55.780;37.520;2022-12-10T10:07:44;27.63;;;9.60;;
61204;SDS011;47068;55.780;37.520;2022-12-10T10:10:22;29.33;;;10.55;;
61204;SDS011;47068;55.780;37.520;2022-12-10T10:12:49;33.03;;;8.50;;
61204;SDS011;47068;55.780;37.520;2022-12-10T10:15:22;32.27;;;8.47;;
61204;SDS011;47068;55.780;37.520;2022-12-10T10:17:53;36.00;;;11.30;;
61204;SDS011;47068;55.780;37.520;2022-12-10T10:20:21;20.37;;;8.80;;
61204;SDS011;47068;55.780;37.520;2022-12-10T10:22:47;29.00;;;10.60;;
61204;SDS011;47068;55.780;37.520;2022-12-10T10:25:13;27.13;;;8.60;;
61204;SDS011;47068;55.780;37.520;2022-12-10T10:27:42;33.43;;;9.00;;
61204;SDS011;47068;55.780;37.520;2022-12-10T10:30:13;34.55;;;11.35;;
61204;SDS011;47068;55.780;37.520;2022-12-10T10:35:07;29.90;;;9.10;;
61204;SDS011;47068;55.780;37.520;2022-12-10T10:37:46;45.23;;;13.23;;
61204;SDS011;47068;55.780;37.520;2022-12-10T10:40:39;31.40;;;10.90;;
61204;SDS011;47068;55.780;37.520;2022-12-10T10:43:11;26.40;;;8.87;;
61204;SDS011;47068;55.780;37.520;2022-12-10T10:45:42;26.20;;;9.27;;
61204;SDS011;47068;55.780;37.520;2022-12-10T10:48:18;31.93;;;9.07;;
61204;SDS011;47068;55.780;37.520;2022-12-10T10:50:50;40.80;;;8.63;;
61204;SDS011;47068;55.780;37.520;2022-12-10T10:53:23;36.23;;;9.13;;
61204;SDS011;47068;55.780;37.520;2022-12-10T10:55:54;26.93;;;8.13;;
61204;SDS011;47068;55.780;37.520;2022-12-10T10:58:23;35.70;;;11.10;;
61204;SDS011;47068;55.780;37.520;2022-12-10T11:00:54;24.23;;;9.27;;
61204;SDS011;47068;55.780;37.520;2022-12-10T11:03:44;18.73;;;7.63;;
61204;SDS011;47068;55.780;37.520;2022-12-10T11:06:22;25.27;;;8.60;;
61204;SDS011;47068;55.780;37.520;2022-12-10T11:08:48;23.42;;;7.93;;
61204;SDS011;47068;55.780;37.520;2022-12-10T11:11:20;33.17;;;9.23;;
61204;SDS011;47068;55.780;37.520;2022-12-10T11:13:50;23.43;;;9.53;;
61204;SDS011;47068;55.780;37.520;2022-12-10T11:16:23;27.02;;;8.32;;
61204;SDS011;47068;55.780;37.520;2022-12-10T11:21:21;24.93;;;7.73;;
61204;SDS011;47068;55.780;37.520;2022-12-10T11:23:48;43.35;;;11.20;;
61204;SDS011;47068;55.780;37.520;2022-12-10T11:45:26;20.83;;;8.83;;
61204;SDS011;47068;55.780;37.520;2022-12-10T11:51:05;16.37;;;7.33;;
61204;SDS011;47068;55.780;37.520;2022-12-10T12:07:28;25.10;;;7.47;;
61204;SDS011;47068;55.780;37.520;2022-12-10T12:21:04;28.90;;;8.77;;
61204;SDS011;47068;55.780;37.520;2022-12-10T12:23:54;23.27;;;7.23;;
61204;SDS011;47068;55.780;37.520;2022-12-10T12:26:39;25.40;;;6.90;;
61204;SDS011;47068;55.780;37.520;2022-12-10T12:29:25;16.67;;;6.20;;
61204;SDS011;47068;55.780;37.520;2022-12-10T12:37:26;18.10;;;5.57;;
61204;SDS011;47068;55.780;37.520;2022-12-10T12:45:41;16.13;;;5.73;;
61204;SDS011;47068;55.780;37.520;2022-12-10T12:53:54;20.47;;;6.37;;
61204;SDS011;47068;55.780;37.520;2022-12-10T13:02:22;16.83;;;6.23;;
61204;SDS011;47068;55.780;37.520;2022-12-10T13:04:51;21.03;;;7.03;;
61204;SDS011;47068;55.780;37.520;2022-12-10T13:09:47;20.53;;;7.27;;
61204;SDS011;47068;55.780;37.520;2022-12-10T13:17:35;26.37;;;5.63;;
61204;SDS011;47068;55.780;37.520;2022-12-10T13:20:39;9.18;;;4.25;;
61204;SDS011;47068;55.780;37.520;2022-12-10T13:22:54;15.33;;;5.80;;
61204;SDS011;47068;55.780;37.520;2022-12-10T13:26:16;16.93;;;5.50;;
61204;SDS011;47068;55.780;37.520;2022-12-10T13:30:45;8.97;;;4.20;;
61204;SDS011;47068;55.780;37.520;2022-12-10T13:33:45;23.53;;;5.83;;
61204;SDS011;47068;55.780;37.520;2022-12-10T13:41:31;20.50;;;6.23;;
61204;SDS011;47068;55.780;37.520;2022-12-10T13:50:03;28.58;;;5.40;;
61204;SDS011;47068;55.780;37.520;2022-12-10T14:01:10;10.97;;;4.70;;
61204;SDS011;47068;55.780;37.520;2022-12-10T14:06:32;18.07;;;4.67;;
61204;SDS011;47068;55.780;37.520;2022-12-10T14:09:05;15.20;;;6.27;;
61204;SDS011;47068;55.780;37.520;2022-12-10T14:11:37;14.60;;;6.57;;
61204;SDS011;47068;55.780;37.520;2022-12-10T14:14:11;22.97;;;6.03;;
61204;SDS011;47068;55.780;37.520;2022-12-10T14:16:42;10.87;;;5.73;;
61204;SDS011;47068;55.780;37.520;2022-12-10T14:19:08;18.92;;;6.13;;
61204;SDS011;47068;55.780;37.520;2022-12-10T14:21:40;10.87;;;5.27;;
61204;SDS011;47068;55.780;37.520;2022-12-10T14:26:59;11.00;;;4.93;;
61204;SDS011;47068;55.780;37.520;2022-12-10T14:29:42;11.80;;;5.00;;
61204;SDS011;47068;55.780;37.520;2022-12-10T14:32:25;12.43;;;5.03;;
61204;SDS011;47068;55.780;37.520;2022-12-10T14:34:57;10.87;;;4.57;;
61204;SDS011;47068;55.780;37.520;2022-12-10T14:37:25;10.20;;;3.93;;
61204;SDS011;47068;55.780;37.520;2022-12-10T14:39:54;12.87;;;5.60;;
61204;SDS011;47068;55.780;37.520;2022-12-10T14:42:20;14.75;;;7.00;;
61204;SDS011;47068;55.780;37.520;2022-12-10T14:44:49;13.57;;;6.73;;
61204;SDS011;47068;55.780;37.520;2022-12-10T14:47:21;23.10;;;6.67;;
61204;SDS011;47068;55.780;37.520;2022-12-10T14:49:47;14.57;;;5.78;;
61204;SDS011;47068;55.780;37.520;2022-12-10T14:52:16;14.60;;;6.23;;
61204;SDS011;47068;55.780;37.520;2022-12-10T14:54:46;12.17;;;4.63;;
61204;SDS011;47068;55.780;37.520;2022-12-10T14:57:37;10.77;;;5.27;;
61204;SDS011;47068;55.780;37.520;2022-12-10T15:00:12;17.75;;;5.20;;
61204;SDS011;47068;55.780;37.520;2022-12-10T15:02:43;8.37;;;4.57;;
61204;SDS011;47068;55.780;37.520;2022-12-10T15:05:12;10.83;;;6.30;;
61204;SDS011;47068;55.780;37.520;2022-12-10T15:07:51;23.20;;;9.23;;
61204;SDS011;47068;55.780;37.520;2022-12-10T15:10:21;12.20;;;5.40;;
61204;SDS011;47068;55.780;37.520;2022-12-10T15:12:50;25.27;;;4.03;;
61204;SDS011;47068;55.780;37.520;2022-12-10T15:15:20;16.73;;;4.70;;
61204;SDS011;47068;55.780;37.520;2022-12-10T15:17:55;17.87;;;4.53;;
61204;SDS011;47068;55.780;37.520;2022-12-10T15:20:44;14.23;;;4.90;;
61204;SDS011;47068;55.780;37.520;2022-12-10T15:23:30;10.73;;;6.27;;
61204;SDS011;47068;55.780;37.520;2022-12-10T15:28:37;13.67;;;4.13;;
61204;SDS011;47068;55.780;37.520;2022-12-10T15:34:05;10.98;;;4.07;;
61204;SDS011;47068;55.780;37.520;2022-12-10T15:39:04;14.43;;;4.23;;
61204;SDS011;47068;55.780;37.520;2022-12-10T15:41:37;18.13;;;5.87;;
61204;SDS011;47068;55.780;37.520;2022-12-10T15:44:44;13.23;;;5.80;;
61204;SDS011;47068;55.780;37.520;2022-12-10T15:49:45;13.10;;;3.50;;
61204;SDS011;47068;55.780;37.520;2022-12-10T15:52:16;12.30;;;4.73;;
61204;SDS011;47068;55.780;37.520;2022-12-10T15:54:43;11.20;;;4.80;;
61204;SDS011;47068;55.780;37.520;2022-12-10T15:57:15;16.13;;;4.30;;
61204;SDS011;47068;55.780;37.520;2022-12-10T15:59:43;8.17;;;3.97;;
61204;SDS011;47068;55.780;37.520;2022-12-10T16:02:24;14.83;;;4.87;;
61204;SDS011;47068;55.780;37.520;2022-12-10T16:07:41;26.23;;;4.03;;
61204;SDS011;47068;55.780;37.520;2022-12-10T16:12:34;7.57;;;3.90;;
61204;SDS011;47068;55.780;37.520;2022-12-10T16:15:00;17.03;;;3.40;;
61204;SDS011;47068;55.780;37.520;2022-12-10T16:17:27;15.98;;;3.45;;
61204;SDS011;47068;55.780;37.520;2022-12-10T16:22:18;10.43;;;3.47;;
61204;SDS011;47068;55.780;37.520;2022-12-10T16:24:44;10.10;;;4.95;;
61204;SDS011;47068;55.780;37.520;2022-12-10T16:27:11;12.90;;;4.73;;
61204;SDS011;47068;55.780;37.520;2022-12-10T16:29:38;10.40;;;3.43;;
61204;SDS011;47068;55.780;37.520;2022-12-10T16:32:04;11.27;;;4.45;;
61204;SDS011;47068;55.780;37.520;2022-12-10T16:34:29;18.13;;;3.70;;
61204;SDS011;47068;55.780;37.520;2022-12-10T16:36:55;10.17;;;4.43;;
61204;SDS011;47068;55.780;37.520;2022-12-10T16:39:20;7.80;;;3.75;;
61204;SDS011;47068;55.780;37.520;2022-12-10T16:41:51;14.10;;;4.10;;
61204;SDS011;47068;55.780;37.520;2022-12-10T16:44:18;13.63;;;3.93;;
61204;SDS011;47068;55.780;37.520;2022-12-10T16:46:43;14.00;;;4.73;;
61204;SDS011;47068;55.780;37.520;2022-12-10T16:49:09;15.80;;;4.03;;
61204;SDS011;47068;55.780;37.520;2022-12-10T16:51:37;8.00;;;3.53;;
61204;SDS011;47068;55.780;37.520;2022-12-10T16:54:03;9.87;;;3.40;;
61204;SDS011;47068;55.780;37.520;2022-12-10T16:56:29;9.27;;;3.20;;
61204;SDS011;47068;55.780;37.520;2022-12-10T16:58:55;14.80;;;5.10;;
61204;SDS011;47068;55.780;37.520;2022-12-10T17:01:27;7.47;;;3.23;;
61204;SDS011;47068;55.780;37.520;2022-12-10T17:03:55;11.27;;;4.20;;
61204;SDS011;47068;55.780;37.520;2022-12-10T17:06:22;15.83;;;3.40;;
61204;SDS011;47068;55.780;37.520;2022-12-10T17:08:48;9.88;;;3.50;;
61204;SDS011;47068;55.780;37.520;2022-12-10T17:11:18;9.95;;;4.43;;
61204;SDS011;47068;55.780;37.520;2022-12-10T17:14:05;10.17;;;4.00;;
61204;SDS011;47068;55.780;37.520;2022-12-10T17:16:34;11.43;;;3.60;;
61204;SDS011;47068;55.780;37.520;2022-12-10T17:19:00;9.87;;;3.23;;
61204;SDS011;47068;55.780;37.520;2022-12-10T17:21:25;11.98;;;3.00;;
61204;SDS011;47068;55.780;37.520;2022-12-10T17:23:51;9.83;;;3.73;;
61204;SDS011;47068;55.780;37.520;2022-12-10T17:26:29;10.57;;;5.17;;
61204;SDS011;47068;55.780;37.520;2022-12-10T17:28:59;12.77;;;5.67;;
61204;SDS011;47068;55.780;37.520;2022-12-10T17:31:28;7.80;;;3.87;;
61204;SDS011;47068;55.780;37.520;2022-12-10T17:33:54;14.98;;;4.78;;
61204;SDS011;47068;55.780;37.520;2022-12-10T17:36:19;8.93;;;4.07;;
61204;SDS011;47068;55.780;37.520;2022-12-10T17:38:47;9.07;;;3.70;;